sensor_id;sensor_type;location;lat;lon;timestamp;P1;durP1;ratioP1;P2;durP2;ratioP2
20826;SDS011;10574;52.508;13.236;2023-07-20T00:00:22;1.37;;;0.67;;
20826;SDS011;10574;52.508;13.236;2023-07-20T00:02:52;1.20;;;0.73;;
20826;SDS011;10574;52.508;13.236;2023-07-20T00:05:21;0.43;;;0.43;;
20826;SDS011;10574;52.508;13.236;2023-07-20T00:07:50;0.23;;;0.23;;
20826;SDS011;10574;52.508;13.236;2023-07-20T00:10:18;0.70;;;0.50;;
20826;SDS011;10574;52.508;13.236;2023-07-20T00:12:46;0.50;;;0.43;;
20826;SDS011;10574;52.508;13.236;2023-07-20T00:15:14;0.40;;;0.40;;
20826;SDS011;10574;52.508;13.236;2023-07-20T00:17:42;1.00;;;0.37;;
20826;SDS011;10574;52.508;13.236;2023-07-20T00:20:11;3.17;;;0.67;;
20826;SDS011;10574;52.508;13.236;2023-07-20T00:22:38;1.00;;;0.53;;
20826;SDS011;10574;52.508;13.236;2023-07-20T00:25:06;0.30;;;0.30;;
20826;SDS011;10574;52.508;13.236;2023-07-20T00:27:34;2.30;;;0.43;;
20826;SDS011;10574;52.508;13.236;2023-07-20T00:30:03;1.37;;;0.77;;
20826;SDS011;10574;52.508;13.236;2023-07-20T00:32:32;1.60;;;0.77;;
20826;SDS011;10574;52.508;13.236;2023-07-20T00:34:59;3.27;;;0.63;;
20826;SDS011;10574;52.508;13.236;2023-07-20T00:37:27;0.20;;;0.20;;
20826;SDS011;10574;52.508;13.236;2023-07-20T00:39:55;1.10;;;0.90;;
20826;SDS011;10574;52.508;13.236;2023-07-20T00:42:23;0.30;;;0.30;;
20826;SDS011;10574;52.508;13.236;2023-07-20T00:44:50;0.50;;;0.50;;
20826;SDS011;10574;52.508;13.236;2023-07-20T00:47:18;0.60;;;0.60;;
20826;SDS011;10574;52.508;13.236;2023-07-20T00:49:46;0.33;;;0.33;;
20826;SDS011;10574;52.508;13.236;2023-07-20T00:52:14;1.67;;;0.83;;
20826;SDS011;10574;52.508;13.236;2023-07-20T00:57:30;2.27;;;0.80;;
20826;SDS011;10574;52.508;13.236;2023-07-20T00:59:59;1.20;;;0.77;;
20826;SDS011;10574;52.508;13.236;2023-07-20T01:02:27;0.43;;;0.43;;
20826;SDS011;10574;52.508;13.236;2023-07-20T01:04:55;2.00;;;0.77;;
20826;SDS011;10574;52.508;13.236;2023-07-20T01:07:29;0.90;;;0.90;;
20826;SDS011;10574;52.508;13.236;2023-07-20T01:12:51;1.07;;;0.97;;
20826;SDS011;10574;52.508;13.236;2023-07-20T01:15:21;2.80;;;1.57;;
20826;SDS011;10574;52.508;13.236;2023-07-20T01:17:50;2.30;;;1.60;;
20826;SDS011;10574;52.508;13.236;2023-07-20T01:20:18;2.03;;;0.93;;
20826;SDS011;10574;52.508;13.236;2023-07-20T01:22:57;1.20;;;1.10;;
20826;SDS011;10574;52.508;13.236;2023-07-20T01:33:58;1.87;;;0.90;;
20826;SDS011;10574;52.508;13.236;2023-07-20T01:36:33;1.10;;;1.00;;
20826;SDS011;10574;52.508;13.236;2023-07-20T01:38:58;1.70;;;1.13;;
20826;SDS011;10574;52.508;13.236;2023-07-20T01:41:26;0.83;;;0.83;;
20826;SDS011;10574;52.508;13.236;2023-07-20T01:43:57;0.53;;;0.53;;
20826;SDS011;10574;52.508;13.236;2023-07-20T01:46:26;1.23;;;0.93;;
20826;SDS011;10574;52.508;13.236;2023-07-20T01:48:54;2.60;;;0.80;;
20826;SDS011;10574;52.508;13.236;2023-07-20T01:51:22;0.73;;;0.63;;
20826;SDS011;10574;52.508;13.236;2023-07-20T01:53:50;0.83;;;0.60;;
20826;SDS011;10574;52.508;13.236;2023-07-20T01:56:18;1.53;;;0.90;;
20826;SDS011;10574;52.508;13.236;2023-07-20T01:58:46;35.10;;;1.47;;
20826;SDS011;10574;52.508;13.236;2023-07-20T02:01:13;0.70;;;0.60;;
20826;SDS011;10574;52.508;13.236;2023-07-20T02:03:41;2.03;;;0.87;;
20826;SDS011;10574;52.508;13.236;2023-07-20T02:06:09;0.57;;;0.57;;
20826;SDS011;10574;52.508;13.236;2023-07-20T02:08:37;0.40;;;0.40;;
20826;SDS011;10574;52.508;13.236;2023-07-20T02:11:04;0.77;;;0.77;;
20826;SDS011;10574;52.508;13.236;2023-07-20T02:13:32;0.20;;;0.20;;
20826;SDS011;10574;52.508;13.236;2023-07-20T02:16:00;13.73;;;1.80;;
20826;SDS011;10574;52.508;13.236;2023-07-20T02:18:28;0.93;;;0.50;;
20826;SDS011;10574;52.508;13.236;2023-07-20T02:20:55;2.73;;;0.60;;
20826;SDS011;10574;52.508;13.236;2023-07-20T02:23:23;2.77;;;1.13;;
20826;SDS011;10574;52.508;13.236;2023-07-20T02:25:51;1.07;;;0.77;;
20826;SDS011;10574;52.508;13.236;2023-07-20T02:28:19;0.90;;;0.70;;
20826;SDS011;10574;52.508;13.236;2023-07-20T02:30:46;1.63;;;0.90;;
20826;SDS011;10574;52.508;13.236;2023-07-20T02:33:15;1.43;;;0.87;;
20826;SDS011;10574;52.508;13.236;2023-07-20T02:35:43;2.30;;;0.53;;
20826;SDS011;10574;52.508;13.236;2023-07-20T02:38:11;2.20;;;1.23;;
20826;SDS011;10574;52.508;13.236;2023-07-20T02:40:38;7.30;;;1.70;;
20826;SDS011;10574;52.508;13.236;2023-07-20T02:43:06;1.07;;;1.07;;
20826;SDS011;10574;52.508;13.236;2023-07-20T02:45:35;1.03;;;0.63;;
20826;SDS011;10574;52.508;13.236;2023-07-20T02:48:04;1.33;;;1.00;;
20826;SDS011;10574;52.508;13.236;2023-07-20T02:50:33;1.23;;;0.87;;
20826;SDS011;10574;52.508;13.236;2023-07-20T02:53:02;0.80;;;0.80;;
20826;SDS011;10574;52.508;13.236;2023-07-20T02:55:30;2.90;;;1.33;;
20826;SDS011;10574;52.508;13.236;2023-07-20T02:57:58;2.40;;;1.20;;
20826;SDS011;10574;52.508;13.236;2023-07-20T03:00:25;2.97;;;0.73;;
20826;SDS011;10574;52.508;13.236;2023-07-20T03:02:53;3.77;;;2.43;;
20826;SDS011;10574;52.508;13.236;2023-07-20T03:05:22;3.07;;;1.50;;
20826;SDS011;10574;52.508;13.236;2023-07-20T03:07:55;2.10;;;1.73;;
20826;SDS011;10574;52.508;13.236;2023-07-20T03:10:23;0.53;;;0.47;;
20826;SDS011;10574;52.508;13.236;2023-07-20T03:12:50;1.27;;;1.17;;
20826;SDS011;10574;52.508;13.236;2023-07-20T03:15:18;5.40;;;2.17;;
20826;SDS011;10574;52.508;13.236;2023-07-20T03:17:46;1.63;;;1.20;;
20826;SDS011;10574;52.508;13.236;2023-07-20T03:20:14;2.13;;;1.17;;
20826;SDS011;10574;52.508;13.236;2023-07-20T03:22:41;3.90;;;1.57;;
20826;SDS011;10574;52.508;13.236;2023-07-20T03:25:09;4.53;;;1.50;;
20826;SDS011;10574;52.508;13.236;2023-07-20T03:27:38;1.30;;;1.20;;
20826;SDS011;10574;52.508;13.236;2023-07-20T03:30:06;4.57;;;1.97;;
20826;SDS011;10574;52.508;13.236;2023-07-20T03:32:35;3.27;;;1.73;;
20826;SDS011;10574;52.508;13.236;2023-07-20T03:35:03;4.10;;;1.40;;
20826;SDS011;10574;52.508;13.236;2023-07-20T03:37:31;3.63;;;2.20;;
20826;SDS011;10574;52.508;13.236;2023-07-20T03:40:01;4.13;;;1.90;;
20826;SDS011;10574;52.508;13.236;2023-07-20T03:42:30;2.50;;;1.47;;
20826;SDS011;10574;52.508;13.236;2023-07-20T03:44:58;1.17;;;1.07;;
20826;SDS011;10574;52.508;13.236;2023-07-20T03:47:26;14.63;;;3.27;;
20826;SDS011;10574;52.508;13.236;2023-07-20T03:49:53;2.13;;;1.83;;
20826;SDS011;10574;52.508;13.236;2023-07-20T03:52:21;3.67;;;1.60;;
20826;SDS011;10574;52.508;13.236;2023-07-20T03:54:49;1.67;;;1.30;;
20826;SDS011;10574;52.508;13.236;2023-07-20T03:57:20;2.43;;;1.20;;
20826;SDS011;10574;52.508;13.236;2023-07-20T03:59:47;2.20;;;1.47;;
20826;SDS011;10574;52.508;13.236;2023-07-20T04:02:15;3.57;;;1.77;;
20826;SDS011;10574;52.508;13.236;2023-07-20T04:04:43;1.97;;;1.60;;
20826;SDS011;10574;52.508;13.236;2023-07-20T04:07:11;1.40;;;1.17;;
20826;SDS011;10574;52.508;13.236;2023-07-20T04:09:39;1.60;;;1.23;;
20826;SDS011;10574;52.508;13.236;2023-07-20T04:12:07;3.37;;;2.03;;
20826;SDS011;10574;52.508;13.236;2023-07-20T04:14:35;2.03;;;1.53;;
20826;SDS011;10574;52.508;13.236;2023-07-20T04:17:02;2.37;;;1.70;;
20826;SDS011;10574;52.508;13.236;2023-07-20T04:19:31;2.57;;;1.67;;
20826;SDS011;10574;52.508;13.236;2023-07-20T04:21:58;1.03;;;0.93;;
20826;SDS011;10574;52.508;13.236;2023-07-20T04:24:26;2.20;;;1.70;;
20826;SDS011;10574;52.508;13.236;2023-07-20T04:26:53;1.53;;;0.97;;
20826;SDS011;10574;52.508;13.236;2023-07-20T04:29:21;2.53;;;1.70;;
20826;SDS011;10574;52.508;13.236;2023-07-20T04:31:49;1.87;;;1.50;;
20826;SDS011;10574;52.508;13.236;2023-07-20T04:34:16;2.37;;;1.93;;
20826;SDS011;10574;52.508;13.236;2023-07-20T04:36:44;1.37;;;1.27;;
20826;SDS011;10574;52.508;13.236;2023-07-20T04:39:12;1.80;;;0.90;;
20826;SDS011;10574;52.508;13.236;2023-07-20T04:41:40;2.73;;;1.43;;
20826;SDS011;10574;52.508;13.236;2023-07-20T04:44:07;2.00;;;1.20;;
20826;SDS011;10574;52.508;13.236;2023-07-20T04:46:35;1.60;;;1.33;;
20826;SDS011;10574;52.508;13.236;2023-07-20T04:49:02;1.73;;;1.37;;
20826;SDS011;10574;52.508;13.236;2023-07-20T04:51:30;4.87;;;2.27;;
20826;SDS011;10574;52.508;13.236;2023-07-20T04:53:59;2.20;;;1.23;;
20826;SDS011;10574;52.508;13.236;2023-07-20T04:56:27;4.17;;;1.97;;
20826;SDS011;10574;52.508;13.236;2023-07-20T04:58:54;4.37;;;1.73;;
20826;SDS011;10574;52.508;13.236;2023-07-20T05:01:23;1.67;;;1.17;;
20826;SDS011;10574;52.508;13.236;2023-07-20T05:03:52;1.10;;;1.00;;
20826;SDS011;10574;52.508;13.236;2023-07-20T05:06:20;7.17;;;1.53;;
20826;SDS011;10574;52.508;13.236;2023-07-20T05:08:47;1.50;;;1.07;;
20826;SDS011;10574;52.508;13.236;2023-07-20T05:11:15;2.23;;;1.33;;
20826;SDS011;10574;52.508;13.236;2023-07-20T05:13:43;3.40;;;1.23;;
20826;SDS011;10574;52.508;13.236;2023-07-20T05:16:11;2.03;;;1.27;;
20826;SDS011;10574;52.508;13.236;2023-07-20T05:18:38;1.03;;;0.73;;
20826;SDS011;10574;52.508;13.236;2023-07-20T05:21:06;6.60;;;2.10;;
20826;SDS011;10574;52.508;13.236;2023-07-20T05:23:34;4.30;;;1.07;;
20826;SDS011;10574;52.508;13.236;2023-07-20T05:26:02;2.93;;;1.57;;
20826;SDS011;10574;52.508;13.236;2023-07-20T05:28:29;1.60;;;1.50;;
20826;SDS011;10574;52.508;13.236;2023-07-20T05:30:57;3.43;;;1.17;;
20826;SDS011;10574;52.508;13.236;2023-07-20T05:33:25;2.83;;;1.93;;
20826;SDS011;10574;52.508;13.236;2023-07-20T05:35:53;1.43;;;1.33;;
20826;SDS011;10574;52.508;13.236;2023-07-20T05:38:20;1.30;;;1.10;;
20826;SDS011;10574;52.508;13.236;2023-07-20T05:40:48;4.63;;;1.53;;
20826;SDS011;10574;52.508;13.236;2023-07-20T05:43:16;1.30;;;1.20;;
20826;SDS011;10574;52.508;13.236;2023-07-20T05:45:44;13.57;;;1.67;;
20826;SDS011;10574;52.508;13.236;2023-07-20T05:48:13;1.87;;;1.17;;
20826;SDS011;10574;52.508;13.236;2023-07-20T05:50:42;1.90;;;1.20;;
20826;SDS011;10574;52.508;13.236;2023-07-20T05:53:10;3.23;;;1.73;;
20826;SDS011;10574;52.508;13.236;2023-07-20T05:55:38;1.87;;;0.90;;
20826;SDS011;10574;52.508;13.236;2023-07-20T05:58:06;1.37;;;1.27;;
20826;SDS011;10574;52.508;13.236;2023-07-20T06:00:34;3.90;;;1.50;;
20826;SDS011;10574;52.508;13.236;2023-07-20T06:03:02;2.83;;;1.23;;
20826;SDS011;10574;52.508;13.236;2023-07-20T06:05:29;1.57;;;1.03;;
20826;SDS011;10574;52.508;13.236;2023-07-20T06:07:57;2.13;;;1.03;;
20826;SDS011;10574;52.508;13.236;2023-07-20T06:10:26;2.93;;;1.30;;
20826;SDS011;10574;52.508;13.236;2023-07-20T06:12:54;3.00;;;1.80;;
20826;SDS011;10574;52.508;13.236;2023-07-20T06:15:32;1.93;;;1.57;;
20826;SDS011;10574;52.508;13.236;2023-07-20T06:18:04;1.23;;;1.13;;
20826;SDS011;10574;52.508;13.236;2023-07-20T06:20:32;1.07;;;0.97;;
20826;SDS011;10574;52.508;13.236;2023-07-20T06:23:00;2.73;;;1.20;;
20826;SDS011;10574;52.508;13.236;2023-07-20T06:25:28;1.07;;;1.07;;
20826;SDS011;10574;52.508;13.236;2023-07-20T06:27:55;1.73;;;0.93;;
20826;SDS011;10574;52.508;13.236;2023-07-20T06:30:23;1.07;;;0.97;;
20826;SDS011;10574;52.508;13.236;2023-07-20T06:32:51;1.10;;;0.87;;
20826;SDS011;10574;52.508;13.236;2023-07-20T06:35:19;0.70;;;0.70;;
20826;SDS011;10574;52.508;13.236;2023-07-20T06:37:47;0.97;;;0.80;;
20826;SDS011;10574;52.508;13.236;2023-07-20T06:40:14;0.37;;;0.30;;
20826;SDS011;10574;52.508;13.236;2023-07-20T06:42:42;1.03;;;0.60;;
20826;SDS011;10574;52.508;13.236;2023-07-20T06:45:10;0.63;;;0.50;;
20826;SDS011;10574;52.508;13.236;2023-07-20T06:47:38;0.30;;;0.27;;
20826;SDS011;10574;52.508;13.236;2023-07-20T06:50:06;1.60;;;0.70;;
20826;SDS011;10574;52.508;13.236;2023-07-20T06:52:34;0.97;;;0.57;;
20826;SDS011;10574;52.508;13.236;2023-07-20T06:55:03;0.80;;;0.47;;
20826;SDS011;10574;52.508;13.236;2023-07-20T06:57:32;4.17;;;1.07;;
20826;SDS011;10574;52.508;13.236;2023-07-20T06:59:59;0.20;;;0.20;;
20826;SDS011;10574;52.508;13.236;2023-07-20T07:02:27;0.23;;;0.23;;
20826;SDS011;10574;52.508;13.236;2023-07-20T07:04:55;0.03;;;0.03;;
20826;SDS011;10574;52.508;13.236;2023-07-20T07:07:22;0.33;;;0.33;;
20826;SDS011;10574;52.508;13.236;2023-07-20T07:09:50;6.93;;;1.27;;
20826;SDS011;10574;52.508;13.236;2023-07-20T07:12:18;0.20;;;0.20;;
20826;SDS011;10574;52.508;13.236;2023-07-20T07:14:45;0.50;;;0.50;;
20826;SDS011;10574;52.508;13.236;2023-07-20T07:17:13;1.50;;;0.53;;
20826;SDS011;10574;52.508;13.236;2023-07-20T07:19:40;0.27;;;0.27;;
20826;SDS011;10574;52.508;13.236;2023-07-20T07:22:08;2.37;;;0.47;;
20826;SDS011;10574;52.508;13.236;2023-07-20T07:24:36;0.10;;;0.10;;
20826;SDS011;10574;52.508;13.236;2023-07-20T07:27:04;0.50;;;0.50;;
20826;SDS011;10574;52.508;13.236;2023-07-20T07:29:32;0.33;;;0.33;;
20826;SDS011;10574;52.508;13.236;2023-07-20T07:31:59;0.40;;;0.27;;
20826;SDS011;10574;52.508;13.236;2023-07-20T07:34:27;0.10;;;0.10;;
20826;SDS011;10574;52.508;13.236;2023-07-20T07:36:55;0.40;;;0.30;;
20826;SDS011;10574;52.508;13.236;2023-07-20T07:39:23;1.97;;;0.17;;
20826;SDS011;10574;52.508;13.236;2023-07-20T07:41:50;0.40;;;0.40;;
20826;SDS011;10574;52.508;13.236;2023-07-20T07:44:18;0.10;;;0.10;;
20826;SDS011;10574;52.508;13.236;2023-07-20T07:46:47;0.00;;;0.00;;
20826;SDS011;10574;52.508;13.236;2023-07-20T07:49:16;2.00;;;0.37;;
20826;SDS011;10574;52.508;13.236;2023-07-20T07:51:45;0.13;;;0.10;;
20826;SDS011;10574;52.508;13.236;2023-07-20T07:54:13;0.30;;;0.27;;
20826;SDS011;10574;52.508;13.236;2023-07-20T07:56:40;0.20;;;0.10;;
20826;SDS011;10574;52.508;13.236;2023-07-20T07:59:08;5.00;;;0.33;;
20826;SDS011;10574;52.508;13.236;2023-07-20T08:01:37;1.40;;;0.67;;
20826;SDS011;10574;52.508;13.236;2023-07-20T08:04:04;0.00;;;0.00;;
20826;SDS011;10574;52.508;13.236;2023-07-20T08:06:32;1.80;;;0.67;;
20826;SDS011;10574;52.508;13.236;2023-07-20T08:09:00;0.10;;;0.10;;
20826;SDS011;10574;52.508;13.236;2023-07-20T08:11:29;0.00;;;0.00;;
20826;SDS011;10574;52.508;13.236;2023-07-20T08:13:58;0.00;;;0.00;;
20826;SDS011;10574;52.508;13.236;2023-07-20T08:16:27;2.87;;;1.07;;
20826;SDS011;10574;52.508;13.236;2023-07-20T08:18:54;0.00;;;0.00;;
20826;SDS011;10574;52.508;13.236;2023-07-20T08:21:22;0.00;;;0.00;;
20826;SDS011;10574;52.508;13.236;2023-07-20T08:23:50;0.10;;;0.00;;
20826;SDS011;10574;52.508;13.236;2023-07-20T08:26:17;0.20;;;0.20;;
20826;SDS011;10574;52.508;13.236;2023-07-20T08:28:46;0.00;;;0.00;;
20826;SDS011;10574;52.508;13.236;2023-07-20T08:31:14;0.00;;;0.00;;
20826;SDS011;10574;52.508;13.236;2023-07-20T08:33:44;0.10;;;0.10;;
20826;SDS011;10574;52.508;13.236;2023-07-20T08:36:11;0.03;;;0.03;;
20826;SDS011;10574;52.508;13.236;2023-07-20T08:38:39;0.03;;;0.03;;
20826;SDS011;10574;52.508;13.236;2023-07-20T08:41:07;0.10;;;0.10;;
20826;SDS011;10574;52.508;13.236;2023-07-20T08:43:36;0.10;;;0.10;;
20826;SDS011;10574;52.508;13.236;2023-07-20T08:46:06;0.00;;;0.00;;
20826;SDS011;10574;52.508;13.236;2023-07-20T08:48:34;1.60;;;0.10;;
20826;SDS011;10574;52.508;13.236;2023-07-20T08:51:02;0.10;;;0.10;;
20826;SDS011;10574;52.508;13.236;2023-07-20T08:53:31;0.00;;;0.00;;
20826;SDS011;10574;52.508;13.236;2023-07-20T08:56:00;0.07;;;0.07;;
20826;SDS011;10574;52.508;13.236;2023-07-20T08:58:29;0.00;;;0.00;;
20826;SDS011;10574;52.508;13.236;2023-07-20T09:00:57;0.07;;;0.00;;
20826;SDS011;10574;52.508;13.236;2023-07-20T09:03:27;0.00;;;0.00;;
20826;SDS011;10574;52.508;13.236;2023-07-20T09:05:56;0.00;;;0.00;;
20826;SDS011;10574;52.508;13.236;2023-07-20T09:08:24;0.00;;;0.00;;
20826;SDS011;10574;52.508;13.236;2023-07-20T09:10:51;0.33;;;0.10;;
20826;SDS011;10574;52.508;13.236;2023-07-20T09:13:19;0.00;;;0.00;;
20826;SDS011;10574;52.508;13.236;2023-07-20T09:15:47;0.30;;;0.20;;
20826;SDS011;10574;52.508;13.236;2023-07-20T09:18:26;0.30;;;0.20;;
20826;SDS011;10574;52.508;13.236;2023-07-20T09:21:01;0.00;;;0.00;;
20826;SDS011;10574;52.508;13.236;2023-07-20T09:26:20;0.00;;;0.00;;
20826;SDS011;10574;52.508;13.236;2023-07-20T09:28:51;0.20;;;0.20;;
20826;SDS011;10574;52.508;13.236;2023-07-20T09:31:20;0.17;;;0.10;;
20826;SDS011;10574;52.508;13.236;2023-07-20T09:33:49;0.00;;;0.00;;
20826;SDS011;10574;52.508;13.236;2023-07-20T09:36:19;0.10;;;0.10;;
20826;SDS011;10574;52.508;13.236;2023-07-20T09:38:47;0.00;;;0.00;;
20826;SDS011;10574;52.508;13.236;2023-07-20T09:41:16;0.20;;;0.10;;
20826;SDS011;10574;52.508;13.236;2023-07-20T09:43:45;12.90;;;0.57;;
20826;SDS011;10574;52.508;13.236;2023-07-20T09:46:13;0.10;;;0.03;;
20826;SDS011;10574;52.508;13.236;2023-07-20T09:48:51;0.00;;;0.00;;
20826;SDS011;10574;52.508;13.236;2023-07-20T09:51:22;0.00;;;0.00;;
20826;SDS011;10574;52.508;13.236;2023-07-20T09:53:51;0.10;;;0.10;;
20826;SDS011;10574;52.508;13.236;2023-07-20T09:56:21;0.37;;;0.10;;
20826;SDS011;10574;52.508;13.236;2023-07-20T09:58:49;0.13;;;0.13;;
20826;SDS011;10574;52.508;13.236;2023-07-20T10:01:18;0.13;;;0.13;;
20826;SDS011;10574;52.508;13.236;2023-07-20T10:03:47;1.53;;;0.63;;
20826;SDS011;10574;52.508;13.236;2023-07-20T10:06:19;0.00;;;0.00;;
20826;SDS011;10574;52.508;13.236;2023-07-20T10:08:49;0.00;;;0.00;;
20826;SDS011;10574;52.508;13.236;2023-07-20T10:11:19;3.10;;;0.43;;
20826;SDS011;10574;52.508;13.236;2023-07-20T10:13:51;0.20;;;0.20;;
20826;SDS011;10574;52.508;13.236;2023-07-20T10:16:29;0.23;;;0.20;;
20826;SDS011;10574;52.508;13.236;2023-07-20T10:18:59;0.10;;;0.10;;
20826;SDS011;10574;52.508;13.236;2023-07-20T10:21:28;0.10;;;0.10;;
20826;SDS011;10574;52.508;13.236;2023-07-20T10:23:56;0.00;;;0.00;;
20826;SDS011;10574;52.508;13.236;2023-07-20T10:26:26;0.43;;;0.13;;
20826;SDS011;10574;52.508;13.236;2023-07-20T10:28:54;0.00;;;0.00;;
20826;SDS011;10574;52.508;13.236;2023-07-20T10:31:22;0.10;;;0.10;;
20826;SDS011;10574;52.508;13.236;2023-07-20T10:33:50;0.20;;;0.10;;
20826;SDS011;10574;52.508;13.236;2023-07-20T10:36:24;0.00;;;0.00;;
20826;SDS011;10574;52.508;13.236;2023-07-20T10:38:54;0.10;;;0.00;;
20826;SDS011;10574;52.508;13.236;2023-07-20T10:41:35;0.20;;;0.20;;
20826;SDS011;10574;52.508;13.236;2023-07-20T10:44:05;0.17;;;0.17;;
20826;SDS011;10574;52.508;13.236;2023-07-20T10:49:24;0.13;;;0.13;;
20826;SDS011;10574;52.508;13.236;2023-07-20T10:51:57;0.10;;;0.10;;
20826;SDS011;10574;52.508;13.236;2023-07-20T10:56:56;0.40;;;0.33;;
20826;SDS011;10574;52.508;13.236;2023-07-20T11:02:10;1.37;;;0.40;;
20826;SDS011;10574;52.508;13.236;2023-07-20T11:04:38;0.00;;;0.00;;
20826;SDS011;10574;52.508;13.236;2023-07-20T11:07:07;0.10;;;0.10;;
20826;SDS011;10574;52.508;13.236;2023-07-20T11:09:35;0.00;;;0.00;;
20826;SDS011;10574;52.508;13.236;2023-07-20T11:12:11;0.50;;;0.30;;
20826;SDS011;10574;52.508;13.236;2023-07-20T11:14:53;0.13;;;0.13;;
20826;SDS011;10574;52.508;13.236;2023-07-20T11:17:47;0.00;;;0.00;;
20826;SDS011;10574;52.508;13.236;2023-07-20T11:20:16;0.30;;;0.13;;
20826;SDS011;10574;52.508;13.236;2023-07-20T11:22:44;0.20;;;0.20;;
20826;SDS011;10574;52.508;13.236;2023-07-20T11:25:14;0.20;;;0.10;;
20826;SDS011;10574;52.508;13.236;2023-07-20T11:27:45;0.00;;;0.00;;
20826;SDS011;10574;52.508;13.236;2023-07-20T11:30:15;0.10;;;0.10;;
20826;SDS011;10574;52.508;13.236;2023-07-20T11:32:47;0.13;;;0.13;;
20826;SDS011;10574;52.508;13.236;2023-07-20T11:35:17;0.40;;;0.20;;
20826;SDS011;10574;52.508;13.236;2023-07-20T11:37:45;0.10;;;0.10;;
20826;SDS011;10574;52.508;13.236;2023-07-20T11:40:13;0.00;;;0.00;;
20826;SDS011;10574;52.508;13.236;2023-07-20T11:42:42;0.00;;;0.00;;
20826;SDS011;10574;52.508;13.236;2023-07-20T11:45:16;0.00;;;0.00;;
20826;SDS011;10574;52.508;13.236;2023-07-20T11:47:46;0.10;;;0.00;;
20826;SDS011;10574;52.508;13.236;2023-07-20T11:50:16;0.00;;;0.00;;
20826;SDS011;10574;52.508;13.236;2023-07-20T11:52:43;0.00;;;0.00;;
20826;SDS011;10574;52.508;13.236;2023-07-20T11:55:11;0.20;;;0.20;;
20826;SDS011;10574;52.508;13.236;2023-07-20T11:57:39;0.23;;;0.10;;
20826;SDS011;10574;52.508;13.236;2023-07-20T12:00:07;0.00;;;0.00;;
20826;SDS011;10574;52.508;13.236;2023-07-20T12:02:37;0.00;;;0.00;;
20826;SDS011;10574;52.508;13.236;2023-07-20T12:05:05;0.00;;;0.00;;
20826;SDS011;10574;52.508;13.236;2023-07-20T12:07:35;0.00;;;0.00;;
20826;SDS011;10574;52.508;13.236;2023-07-20T12:12:38;1.10;;;0.10;;
20826;SDS011;10574;52.508;13.236;2023-07-20T12:15:22;0.70;;;0.40;;
20826;SDS011;10574;52.508;13.236;2023-07-20T12:17:56;0.10;;;0.03;;
20826;SDS011;10574;52.508;13.236;2023-07-20T12:23:08;0.00;;;0.00;;
20826;SDS011;10574;52.508;13.236;2023-07-20T12:25:39;1.93;;;0.73;;
20826;SDS011;10574;52.508;13.236;2023-07-20T12:28:09;0.00;;;0.00;;
20826;SDS011;10574;52.508;13.236;2023-07-20T12:30:41;0.60;;;0.17;;
20826;SDS011;10574;52.508;13.236;2023-07-20T12:33:11;0.50;;;0.13;;
20826;SDS011;10574;52.508;13.236;2023-07-20T12:35:43;0.00;;;0.00;;
20826;SDS011;10574;52.508;13.236;2023-07-20T12:38:10;0.10;;;0.10;;
20826;SDS011;10574;52.508;13.236;2023-07-20T12:40:39;0.10;;;0.10;;
20826;SDS011;10574;52.508;13.236;2023-07-20T12:43:06;0.00;;;0.00;;
20826;SDS011;10574;52.508;13.236;2023-07-20T12:45:34;0.20;;;0.00;;
20826;SDS011;10574;52.508;13.236;2023-07-20T12:48:02;0.00;;;0.00;;
20826;SDS011;10574;52.508;13.236;2023-07-20T12:50:30;0.00;;;0.00;;
20826;SDS011;10574;52.508;13.236;2023-07-20T12:52:58;0.00;;;0.00;;
20826;SDS011;10574;52.508;13.236;2023-07-20T12:55:25;0.10;;;0.10;;
20826;SDS011;10574;52.508;13.236;2023-07-20T12:57:53;0.83;;;0.10;;
20826;SDS011;10574;52.508;13.236;2023-07-20T13:00:21;0.23;;;0.23;;
20826;SDS011;10574;52.508;13.236;2023-07-20T13:02:49;0.00;;;0.00;;
20826;SDS011;10574;52.508;13.236;2023-07-20T13:05:17;0.20;;;0.10;;
20826;SDS011;10574;52.508;13.236;2023-07-20T13:07:45;0.00;;;0.00;;
20826;SDS011;10574;52.508;13.236;2023-07-20T13:10:12;0.00;;;0.00;;
20826;SDS011;10574;52.508;13.236;2023-07-20T13:12:46;0.00;;;0.00;;
20826;SDS011;10574;52.508;13.236;2023-07-20T13:15:14;0.20;;;0.20;;
20826;SDS011;10574;52.508;13.236;2023-07-20T13:17:42;0.00;;;0.00;;
20826;SDS011;10574;52.508;13.236;2023-07-20T13:20:10;0.00;;;0.00;;
20826;SDS011;10574;52.508;13.236;2023-07-20T13:22:38;0.00;;;0.00;;
20826;SDS011;10574;52.508;13.236;2023-07-20T13:25:06;4.63;;;0.20;;
20826;SDS011;10574;52.508;13.236;2023-07-20T13:27:35;0.00;;;0.00;;
20826;SDS011;10574;52.508;13.236;2023-07-20T13:30:04;0.00;;;0.00;;
20826;SDS011;10574;52.508;13.236;2023-07-20T13:32:36;0.27;;;0.07;;
20826;SDS011;10574;52.508;13.236;2023-07-20T13:35:04;0.00;;;0.00;;
20826;SDS011;10574;52.508;13.236;2023-07-20T13:37:32;0.00;;;0.00;;
20826;SDS011;10574;52.508;13.236;2023-07-20T13:40:00;0.00;;;0.00;;
20826;SDS011;10574;52.508;13.236;2023-07-20T13:42:29;0.00;;;0.00;;
20826;SDS011;10574;52.508;13.236;2023-07-20T13:44:57;0.33;;;0.10;;
20826;SDS011;10574;52.508;13.236;2023-07-20T13:47:26;0.10;;;0.10;;
20826;SDS011;10574;52.508;13.236;2023-07-20T13:49:54;0.00;;;0.00;;
20826;SDS011;10574;52.508;13.236;2023-07-20T13:52:21;0.00;;;0.00;;
20826;SDS011;10574;52.508;13.236;2023-07-20T13:54:49;0.00;;;0.00;;
20826;SDS011;10574;52.508;13.236;2023-07-20T13:57:17;0.30;;;0.30;;
20826;SDS011;10574;52.508;13.236;2023-07-20T13:59:53;0.00;;;0.00;;
20826;SDS011;10574;52.508;13.236;2023-07-20T14:02:21;0.00;;;0.00;;
20826;SDS011;10574;52.508;13.236;2023-07-20T14:04:49;0.10;;;0.10;;
20826;SDS011;10574;52.508;13.236;2023-07-20T14:07:17;0.53;;;0.20;;
20826;SDS011;10574;52.508;13.236;2023-07-20T14:09:44;0.00;;;0.00;;
20826;SDS011;10574;52.508;13.236;2023-07-20T14:12:12;0.00;;;0.00;;
20826;SDS011;10574;52.508;13.236;2023-07-20T14:14:40;0.13;;;0.13;;
20826;SDS011;10574;52.508;13.236;2023-07-20T14:17:11;0.03;;;0.03;;
20826;SDS011;10574;52.508;13.236;2023-07-20T14:19:39;0.10;;;0.10;;
20826;SDS011;10574;52.508;13.236;2023-07-20T14:22:06;0.00;;;0.00;;
20826;SDS011;10574;52.508;13.236;2023-07-20T14:24:34;0.00;;;0.00;;
20826;SDS011;10574;52.508;13.236;2023-07-20T14:27:02;0.00;;;0.00;;
20826;SDS011;10574;52.508;13.236;2023-07-20T14:29:30;1.42;;;0.15;;
20826;SDS011;10574;52.508;13.236;2023-07-20T14:31:58;0.00;;;0.00;;
20826;SDS011;10574;52.508;13.236;2023-07-20T14:34:27;0.20;;;0.20;;
20826;SDS011;10574;52.508;13.236;2023-07-20T14:36:54;0.00;;;0.00;;
20826;SDS011;10574;52.508;13.236;2023-07-20T14:39:22;0.10;;;0.10;;
20826;SDS011;10574;52.508;13.236;2023-07-20T14:41:50;0.10;;;0.05;;
20826;SDS011;10574;52.508;13.236;2023-07-20T14:44:18;0.10;;;0.10;;
20826;SDS011;10574;52.508;13.236;2023-07-20T14:46:46;0.30;;;0.28;;
20826;SDS011;10574;52.508;13.236;2023-07-20T14:49:14;0.35;;;0.13;;
20826;SDS011;10574;52.508;13.236;2023-07-20T14:51:41;0.00;;;0.00;;
20826;SDS011;10574;52.508;13.236;2023-07-20T14:54:11;0.10;;;0.10;;
20826;SDS011;10574;52.508;13.236;2023-07-20T14:56:38;0.00;;;0.00;;
20826;SDS011;10574;52.508;13.236;2023-07-20T14:59:09;0.05;;;0.05;;
20826;SDS011;10574;52.508;13.236;2023-07-20T15:01:37;0.13;;;0.05;;
20826;SDS011;10574;52.508;13.236;2023-07-20T15:04:06;0.00;;;0.00;;
20826;SDS011;10574;52.508;13.236;2023-07-20T15:06:34;0.00;;;0.00;;
20826;SDS011;10574;52.508;13.236;2023-07-20T15:09:03;0.17;;;0.13;;
20826;SDS011;10574;52.508;13.236;2023-07-20T15:11:35;0.00;;;0.00;;